Time;durP1;ratioP1;P1;durP2;ratioP2;P2;SDS_P1;SDS_P2;PMS_P1;PMS_P2;Temp;Humidity;BMP_temperature;BMP_pressure;BME280_temperature;BME280_humidity;BME280_pressure;Samples;Min_cycle;Max_cycle;Signal;HPM_P1;HPM_P2
2023/01/13 00:01:25;;;;;;;0.80;0.80;;;9.20;71.00;;;8.29;57.05;94745.63;5036841;28;20270;-40
2023/01/13 00:03:52;;;;;;;0.63;0.63;;;9.20;71.00;;;8.27;57.14;94748.41;5036537;28;20193;-40
2023/01/13 00:06:24;;;;;;;0.70;0.70;;;9.20;71.00;;;8.27;56.99;94748.41;5036514;28;20236;-40
2023/01/13 00:08:52;;;;;;;0.70;0.70;;;9.20;71.10;;;8.25;57.08;94745.19;5036782;28;20201;-40
2023/01/13 00:11:20;;;;;;;0.80;0.80;;;9.20;71.10;;;8.24;57.37;94742.75;5036442;28;20195;-40
2023/01/13 00:13:47;;;;;;;0.60;0.60;;;9.10;71.00;;;8.23;57.21;94731.50;5036326;28;20246;-40
2023/01/13 00:16:16;;;;;;;0.80;0.80;;;9.10;71.00;;;8.20;57.35;94734.44;5036389;28;20193;-39
2023/01/13 00:18:44;;;;;;;0.63;0.63;;;9.20;71.10;;;8.21;57.46;94736.06;5035484;28;20538;-39
2023/01/13 00:21:18;;;;;;;0.70;0.70;;;9.20;71.20;;;8.21;57.28;94730.06;5036242;28;20631;-40
2023/01/13 00:23:46;;;;;;;0.70;0.70;;;9.10;71.20;;;8.20;57.20;94725.81;5036247;28;20189;-40
2023/01/13 00:26:17;;;;;;;0.63;0.63;;;9.10;71.10;;;8.20;57.45;94729.22;5036234;28;20643;-39
2023/01/13 00:28:44;;;;;;;0.70;0.70;;;9.10;71.10;;;8.20;57.17;94729.22;5036387;28;20184;-38
2023/01/13 00:31:18;;;;;;;0.60;0.60;;;9.10;71.10;;;8.18;57.32;94739.06;5036332;28;20258;-38
2023/01/13 00:33:47;;;;;;;0.60;0.60;;;9.10;71.20;;;8.16;57.31;94728.78;5035173;28;20227;-35
2023/01/13 00:36:17;;;;;;;0.80;0.80;;;9.10;71.20;;;8.19;57.42;94725.00;5036283;28;20203;-34
2023/01/13 00:38:44;;;;;;;0.70;0.70;;;9.10;71.30;;;8.18;57.30;94724.19;5036178;28;20185;-40
2023/01/13 00:41:14;;;;;;;0.70;0.70;;;9.10;71.20;;;8.17;57.31;94730.41;5035874;28;20201;-38
2023/01/13 00:43:41;;;;;;;0.65;0.65;;;9.10;71.20;;;8.17;57.41;94740.06;5035503;28;20232;-38
2023/01/13 00:46:11;;;;;;;0.70;0.70;;;9.10;71.20;;;8.17;57.35;94734.81;5035699;28;20212;-40
2023/01/13 00:48:39;;;;;;;0.63;0.63;;;9.10;71.20;;;8.16;57.44;94728.78;5035742;28;20519;-39
2023/01/13 00:51:16;;;;;;;0.70;0.70;;;9.10;71.20;;;8.16;57.17;94718.31;5035716;28;20196;-39
2023/01/13 00:53:47;;;;;;;0.80;0.80;;;9.10;71.30;;;8.14;57.37;94720.31;5035520;28;20195;-39
2023/01/13 00:56:17;;;;;;;0.63;0.63;;;9.10;71.30;;;8.14;57.38;94720.31;5035627;28;20180;-40
2023/01/13 00:58:48;;;;;;;0.70;0.70;;;9.10;71.20;;;8.14;57.54;94711.66;5035614;28;20181;-33
2023/01/13 01:01:21;;;;;;;0.70;0.70;;;9.10;71.20;;;8.11;57.29;94706.81;5035534;28;20192;-34
2023/01/13 01:03:51;;;;;;;0.70;0.70;;;9.00;71.20;;;8.08;57.36;94710.59;5035615;28;20275;-34
2023/01/13 01:06:22;;;;;;;0.70;0.70;;;9.00;71.20;;;8.07;57.30;94714.19;5035342;28;20219;-34
2023/01/13 01:08:50;;;;;;;0.70;0.70;;;9.00;71.20;;;8.09;57.55;94716.63;5035583;28;20187;-34
2023/01/13 01:11:24;;;;;;;0.60;0.60;;;9.00;71.20;;;8.08;57.53;94713.22;5035467;28;20251;-34
2023/01/13 01:13:55;;;;;;;0.70;0.70;;;9.00;71.20;;;8.06;57.39;94715.19;5034822;28;20177;-34
2023/01/13 01:16:24;;;;;;;0.70;0.70;;;8.90;71.20;;;8.05;57.50;94710.16;5035378;28;20181;-34
2023/01/13 01:18:53;;;;;;;0.70;0.70;;;9.00;71.30;;;8.06;57.45;94709.97;5035512;28;20579;-34
2023/01/13 01:21:23;;;;;;;0.80;0.80;;;8.90;71.30;;;8.06;57.68;94709.16;5035210;28;20196;-34
2023/01/13 01:23:51;;;;;;;0.70;0.70;;;8.90;71.40;;;8.07;57.48;94713.38;5034996;28;20201;-34
2023/01/13 01:26:22;;;;;;;0.70;0.70;;;8.90;71.50;;;8.09;57.55;94716.63;5035172;28;20228;-34
2023/01/13 01:28:49;;;;;;;0.70;0.70;;;8.90;71.50;;;8.07;57.66;94714.19;5035329;28;20200;-34
2023/01/13 01:31:25;;;;;;;0.70;0.70;;;8.90;71.50;;;8.09;57.53;94707.00;5035071;28;20192;-34
2023/01/13 01:33:53;;;;;;;0.70;0.70;;;8.90;71.50;;;8.13;57.53;94704.81;5034890;28;20176;-34
2023/01/13 01:36:22;;;;;;;0.80;0.80;;;9.00;71.60;;;8.15;57.59;94711.50;5035014;28;20279;-34
2023/01/13 01:38:49;;;;;;;0.60;0.60;;;9.00;71.70;;;8.20;57.63;94707.53;5035035;28;20192;-34
2023/01/13 01:41:21;;;;;;;0.70;0.70;;;9.00;71.70;;;8.21;57.49;94707.34;5034941;28;20193;-34
2023/01/13 01:44:05;;;;;;;0.70;0.70;;;9.00;71.60;;;8.21;57.25;94707.34;5034858;28;20247;-34
2023/01/13 01:46:42;;;;;;;0.70;0.70;;;8.90;71.50;;;8.24;57.30;94698.31;5034962;28;20291;-34
2023/01/13 01:49:32;;;;;;;0.70;0.70;;;9.00;71.60;;;8.27;57.54;94701.38;5034962;28;20639;-34
2023/01/13 01:52:06;;;;;;;0.80;0.80;;;9.00;71.50;;;8.29;57.40;94690.78;5034076;28;20184;-34
2023/01/13 01:55:04;;;;;;;0.70;0.70;;;9.00;71.70;;;8.32;57.37;94690.38;5035041;28;20181;-34
2023/01/13 01:57:51;;;;;;;0.70;0.70;;;9.00;71.70;;;8.36;57.27;94686.44;5033986;28;20199;-34
2023/01/13 02:00:18;;;;;;;0.60;0.60;;;9.10;71.70;;;8.42;57.22;94687.47;5034742;28;20570;-34
2023/01/13 02:02:49;;;;;;;0.80;0.80;;;9.10;71.70;;;8.44;57.02;94683.69;5034810;28;20262;-34
2023/01/13 02:05:17;;;;;;;0.70;0.70;;;9.10;71.50;;;8.49;57.08;94683.16;5034631;28;20185;-34
2023/01/13 02:07:47;;;;;;;0.70;0.70;;;9.20;71.50;;;8.52;56.95;94682.00;5034650;28;20223;-34
2023/01/13 02:10:18;;;;;;;0.70;0.70;;;9.20;71.50;;;8.55;56.93;94674.59;5034144;28;20200;-34
2023/01/13 02:12:47;;;;;;;0.70;0.70;;;9.20;71.40;;;8.58;56.86;94676.03;5034671;28;20631;-34
2023/01/13 02:15:22;;;;;;;0.70;0.70;;;9.30;71.40;;;8.59;56.82;94668.00;5033637;28;20197;-34
2023/01/13 02:18:16;;;;;;;0.70;0.70;;;9.30;71.30;;;8.62;56.80;94665.00;5033925;28;20520;-34
2023/01/13 02:21:27;;;;;;;0.80;0.80;;;9.30;71.90;;;8.63;56.88;94658.00;5034042;28;20189;-34
2023/01/13 02:27:35;;;;;;;0.60;0.60;;;9.40;71.20;;;8.67;56.74;94663.63;5037849;28;20232;-34
2023/01/13 02:33:28;;;;;;;0.70;0.70;;;9.30;71.00;;;8.74;56.44;94661.91;5038559;28;20197;-34
2023/01/13 02:36:25;;;;;;;0.70;0.70;;;9.40;71.10;;;8.76;56.17;94660.75;5038383;28;20188;-34
2023/01/13 02:39:00;;;;;;;0.70;0.70;;;9.40;71.00;;;8.84;56.41;94658.97;5037367;28;20219;-34
2023/01/13 02:44:51;;;;;;;0.70;0.70;;;9.50;70.80;;;8.87;55.87;94643.72;5038212;28;20211;-34
2023/01/13 02:47:25;;;;;;;0.60;0.60;;;9.50;70.70;;;8.95;56.03;94651.44;5037551;28;20204;-34
2023/01/13 02:50:18;;;;;;;0.70;0.70;;;9.60;70.70;;;8.99;55.83;94651.88;5037321;28;20199;-34
2023/01/13 02:53:13;;;;;;;0.70;0.70;;;9.60;70.70;;;9.04;55.60;94648.69;5035049;28;20204;-34
2023/01/13 02:55:46;;;;;;;0.70;0.70;;;9.70;70.40;;;9.09;55.48;94636.69;5037065;28;20192;-34
2023/01/13 02:58:20;;;;;;;0.70;0.70;;;9.70;70.60;;;9.11;55.06;94634.66;5037071;28;20181;-34
2023/01/13 03:00:49;;;;;;;0.65;0.65;;;9.70;71.10;;;9.15;54.98;94632.47;5036991;28;20630;-34
2023/01/13 03:03:16;;;;;;;0.70;0.70;;;9.80;70.40;;;9.18;55.22;94620.81;5036877;28;20260;-34
2023/01/13 03:05:45;;;;;;;0.80;0.80;;;9.80;70.30;;;9.19;55.29;94625.06;5037879;28;20227;-34
2023/01/13 03:08:42;;;;;;;0.70;0.70;;;9.80;70.30;;;9.18;54.79;94623.44;5037566;28;20274;-34
2023/01/13 03:11:12;;;;;;;0.70;0.70;;;9.80;69.90;;;9.19;55.07;94620.66;5036886;28;20177;-34
2023/01/13 03:14:03;;;;;;;0.80;0.80;;;9.80;69.90;;;9.21;54.96;94621.25;5036682;28;20654;-34
2023/01/13 03:17:12;;;;;;;0.70;0.70;;;9.80;70.00;;;9.23;54.81;94621.88;5037405;28;20185;-34
2023/01/13 03:20:14;;;;;;;0.70;0.70;;;9.80;69.70;;;9.21;54.56;94628.31;5036727;28;20203;-34
2023/01/13 03:23:10;;;;;;;0.70;0.70;;;9.90;69.70;;;9.24;54.14;94618.28;5036544;28;20184;-34
2023/01/13 03:25:55;;;;;;;0.70;0.70;;;9.80;69.40;;;9.25;53.96;94617.28;5035551;28;20222;-34
2023/01/13 03:28:30;;;;;;;0.80;0.80;;;9.80;69.50;;;9.31;54.13;94609.66;5036791;28;20189;-34
2023/01/13 03:31:07;;;;;;;0.70;0.70;;;9.90;69.60;;;9.30;53.82;94608.81;5037296;28;20184;-34
2023/01/13 03:33:44;;;;;;;0.70;0.70;;;9.90;69.30;;;9.30;53.70;94603.59;5037342;28;20210;-34
2023/01/13 03:36:15;;;;;;;0.70;0.70;;;9.90;69.30;;;9.35;53.55;94601.22;5036717;28;20189;-34
2023/01/13 03:38:58;;;;;;;0.65;0.65;;;9.90;69.20;;;9.37;54.03;94599.22;5036435;28;20169;-34
2023/01/13 03:41:32;;;;;;;0.70;0.70;;;10.00;68.00;;;9.39;53.71;94606.91;5036444;28;20181;-34
2023/01/13 03:44:21;;;;;;;0.70;0.70;;;10.00;67.70;;;9.39;53.90;94604.28;5036059;28;20232;-34
2023/01/13 03:47:03;;;;;;;0.70;0.70;;;10.00;67.90;;;9.38;53.63;94611.31;5035888;28;20200;-34
2023/01/13 03:49:47;;;;;;;0.80;0.80;;;10.10;67.70;;;9.38;53.79;94616.53;5036951;28;20173;-34
2023/01/13 03:52:22;;;;;;;0.70;0.70;;;10.10;67.60;;;9.39;53.64;94612.13;5036006;28;20173;-34
2023/01/13 03:55:12;;;;;;;0.70;0.70;;;10.10;67.50;;;9.39;53.65;94612.13;5036019;28;20546;-34
2023/01/13 03:57:57;;;;;;;0.70;0.70;;;10.10;67.40;;;9.42;53.61;94615.19;5052493;28;20184;-34
2023/01/13 04:00:36;;;;;;;0.70;0.70;;;10.10;67.50;;;9.45;53.73;94619.22;5035928;28;20205;-34
2023/01/13 04:03:10;;;;;;;0.75;0.75;;;10.10;67.70;;;9.48;53.72;94618.03;5036996;28;20180;-34
2023/01/13 04:05:41;;;;;;;0.70;0.70;;;10.20;67.80;;;9.51;53.85;94631.53;5036553;28;20197;-34
2023/01/13 04:08:23;;;;;;;0.80;0.80;;;10.20;67.80;;;9.54;53.67;94617.25;5036527;28;20204;-34
2023/01/13 04:11:05;;;;;;;0.80;0.80;;;10.20;67.50;;;9.55;53.86;94605.78;5035695;28;20180;-34
2023/01/13 04:13:38;;;;;;;0.80;0.80;;;10.30;67.80;;;9.55;53.66;94603.97;5035598;28;20188;-35
2023/01/13 04:16:07;;;;;;;0.70;0.70;;;10.20;67.20;;;9.56;53.60;94597.72;5035494;28;20188;-35
2023/01/13 04:18:37;;;;;;;0.63;0.63;;;10.30;67.60;;;9.55;53.30;94605.78;5035494;28;20299;-34
2023/01/13 04:21:05;;;;;;;0.70;0.70;;;10.30;67.40;;;9.56;53.47;94604.78;5036286;28;20200;-34
2023/01/13 04:23:32;;;;;;;0.70;0.70;;;10.30;67.50;;;9.55;53.59;94597.94;5036472;28;20204;-34
2023/01/13 04:25:59;;;;;;;0.80;0.80;;;10.30;67.50;;;9.54;53.73;94607.56;5035292;28;20207;-34
2023/01/13 04:28:26;;;;;;;0.65;0.65;;;10.30;67.50;;;9.48;52.93;94603.09;5035973;28;20543;-34
2023/01/13 04:30:53;;;;;;;0.70;0.70;;;10.20;67.10;;;9.44;53.08;94596.66;5036246;28;20193;-34
2023/01/13 04:33:20;;;;;;;0.80;0.80;;;10.20;67.20;;;9.38;52.86;94587.75;5036583;28;20216;-34
2023/01/13 04:35:47;;;;;;;0.70;0.70;;;10.20;67.10;;;9.37;53.30;94593.19;5035866;28;20193;-34
2023/01/13 04:38:18;;;;;;;0.70;0.70;;;10.10;67.20;;;9.36;53.47;94605.47;5035906;28;20229;-34
2023/01/13 04:40:45;;;;;;;0.70;0.70;;;10.10;67.40;;;9.34;53.52;94601.41;5036073;28;20528;-34
2023/01/13 04:43:14;;;;;;;0.70;0.70;;;10.10;67.40;;;9.34;53.75;94596.16;5035684;28;20236;-34
2023/01/13 04:45:42;;;;;;;0.70;0.70;;;10.10;67.50;;;9.32;53.67;94598.97;5035774;28;20279;-34
2023/01/13 04:48:09;;;;;;;0.70;0.70;;;10.10;67.30;;;9.31;53.83;94583.47;5034977;28;20670;-34
2023/01/13 04:50:36;;;;;;;0.70;0.70;;;10.10;67.50;;;9.31;53.88;94579.03;5034853;28;20559;-34
2023/01/13 04:53:03;;;;;;;0.70;0.70;;;10.10;67.60;;;9.30;53.85;94593.13;5035904;28;20211;-34
2023/01/13 04:55:30;;;;;;;0.70;0.70;;;10.10;67.60;;;9.31;53.81;94586.09;5035508;28;20196;-34
2023/01/13 04:58:07;;;;;;;0.70;0.70;;;10.10;67.60;;;9.31;53.89;94592.13;5035592;28;20211;-34
2023/01/13 05:00:35;;;;;;;0.70;0.70;;;10.10;67.40;;;9.29;54.04;94587.09;5035567;28;20185;-34
2023/01/13 05:03:02;;;;;;;0.65;0.65;;;10.10;67.60;;;9.30;54.08;94598.34;5035507;28;20258;-34
2023/01/13 05:05:30;;;;;;;0.70;0.70;;;10.10;67.60;;;9.26;53.79;94595.34;5035340;28;20203;-34
2023/01/13 05:07:57;;;;;;;0.70;0.70;;;10.00;67.40;;;9.25;53.98;94598.13;5035349;28;20212;-34
2023/01/13 05:10:24;;;;;;;0.70;0.70;;;10.00;67.70;;;9.26;53.90;94594.53;5035351;28;20196;-34
2023/01/13 05:18:28;;;;;;;0.70;0.70;;;10.00;67.50;;;9.23;54.26;94602.75;5035329;28;20181;-34
2023/01/13 05:20:55;;;;;;;0.80;0.80;;;10.00;67.70;;;9.24;53.99;94599.94;5034357;28;20635;-34
2023/01/13 05:26:07;;;;;;;0.90;0.90;;;10.00;67.70;;;9.27;53.96;94599.56;5035211;28;20188;-34
2023/01/13 05:28:34;;;;;;;0.70;0.70;;;10.00;67.80;;;9.29;54.03;94599.38;5035032;28;20208;-34
2023/01/13 05:31:01;;;;;;;0.80;0.80;;;10.00;67.90;;;9.31;54.06;94601.81;5035119;28;20642;-34
2023/01/13 05:33:28;;;;;;;0.70;0.70;;;10.00;67.80;;;9.32;54.04;94598.97;5035038;28;20260;-34
2023/01/13 05:35:55;;;;;;;0.70;0.70;;;10.00;67.90;;;9.34;54.04;94601.41;5034904;28;20196;-34
2023/01/13 05:38:22;;;;;;;0.80;0.80;;;10.00;67.70;;;9.31;53.91;94594.75;5034976;28;20295;-34
2023/01/13 05:43:34;;;;;;;0.65;0.65;;;10.00;67.80;;;9.34;54.15;94599.59;5034784;28;20236;-34
2023/01/13 05:46:07;;;;;;;0.80;0.80;;;10.00;68.00;;;9.34;54.07;94589.16;5033897;28;20196;-34
2023/01/13 05:48:41;;;;;;;0.80;0.80;;;10.00;68.00;;;9.36;54.08;94579.28;5034907;28;20218;-34
2023/01/13 05:51:10;;;;;;;0.70;0.70;;;10.00;68.00;;;9.39;53.91;94583.34;5035014;28;20200;-34
2023/01/13 05:53:39;;;;;;;0.70;0.70;;;10.00;67.80;;;9.35;54.27;94582.91;5035331;28;20194;-35
2023/01/13 05:56:09;;;;;;;0.80;0.80;;;10.00;68.00;;;9.38;54.15;94577.28;5034382;28;20212;-33
2023/01/13 05:58:37;;;;;;;0.70;0.70;;;10.00;67.90;;;9.39;54.17;94583.34;5035493;28;20184;-34
2023/01/13 06:01:07;;;;;;;0.70;0.70;;;10.00;67.90;;;9.37;54.10;94586.13;5038072;28;20214;-33
2023/01/13 06:03:35;;;;;;;0.70;0.70;;;10.10;67.80;;;9.36;54.22;94570.63;5038977;28;20212;-34
2023/01/13 06:06:03;;;;;;;0.70;0.70;;;10.10;67.80;;;9.31;54.03;94573.81;5038699;28;20192;-34
2023/01/13 06:08:31;;;;;;;0.80;0.80;;;10.10;67.80;;;9.29;54.19;94578.44;5038812;28;20217;-37
2023/01/13 06:10:58;;;;;;;0.70;0.70;;;10.10;67.70;;;9.29;54.32;94571.38;5038260;28;20192;-40
2023/01/13 06:13:25;;;;;;;0.70;0.70;;;10.10;67.80;;;9.29;54.34;94570.59;5038686;28;20197;-39
2023/01/13 06:15:57;;;;;;;0.80;0.80;;;10.10;67.80;;;9.27;54.12;94573.38;5038452;28;20188;-40
2023/01/13 06:18:25;;;;;;;0.70;0.70;;;10.00;67.80;;;9.32;54.30;94575.44;5038565;28;20200;-38
2023/01/13 06:20:52;;;;;;;0.70;0.70;;;10.00;68.00;;;9.34;54.19;94575.22;5038532;28;20619;-37
2023/01/13 06:23:19;;;;;;;0.70;0.70;;;10.00;67.80;;;9.35;54.07;94571.63;5038485;28;20203;-39
2023/01/13 06:26:09;;;;;;;0.60;0.60;;;10.00;68.00;;;9.39;54.04;94584.13;5038357;28;20196;-40
2023/01/13 06:28:35;;;;;;;0.70;0.70;;;10.00;67.80;;;9.39;54.16;94589.38;5037585;28;20201;-40
2023/01/13 06:31:06;;;;;;;0.70;0.70;;;10.10;67.90;;;9.38;54.12;94579.91;5038569;28;20258;-39
2023/01/13 06:33:44;;;;;;;0.70;0.70;;;10.10;67.70;;;9.40;54.18;94584.97;5037553;28;20184;-40
2023/01/13 06:36:17;;;;;;;0.70;0.70;;;10.10;67.70;;;9.41;54.09;94581.31;5037415;28;20173;-39
2023/01/13 06:38:49;;;;;;;0.70;0.70;;;10.10;67.70;;;9.38;54.08;94574.66;5038307;28;20189;-39
2023/01/13 06:43:13;;;;;;;0.70;0.70;;;10.10;67.70;;;9.38;54.08;94581.72;5038302;28;20195;-40
2023/01/13 06:44:04;;;;;;;0.80;0.80;;;10.10;67.70;;;9.35;54.04;94576.84;5037988;28;20228;-39
2023/01/13 06:46:31;;;;;;;0.70;0.70;;;10.10;67.60;;;9.35;53.97;94571.63;5037899;28;20213;-39
2023/01/13 06:48:58;;;;;;;0.70;0.70;;;10.10;67.60;;;9.35;54.13;94576.84;5037952;28;20686;-40
2023/01/13 06:51:25;;;;;;;0.70;0.70;;;10.10;67.60;;;9.37;54.14;94582.72;5037965;28;20623;-39
2023/01/13 06:53:52;;;;;;;0.75;0.75;;;10.10;67.70;;;9.36;53.88;94586.31;5038181;28;20550;-40
2023/01/13 06:56:19;;;;;;;0.60;0.60;;;10.10;67.70;;;9.39;53.96;94588.56;5037771;28;20197;-38
2023/01/13 06:58:46;;;;;;;0.70;0.70;;;10.10;67.70;;;9.41;54.03;94581.31;5037841;28;20207;-39
2023/01/13 07:01:13;;;;;;;0.70;0.70;;;10.10;68.10;;;9.43;53.92;94584.56;5037802;28;20635;-39
2023/01/13 07:03:40;;;;;;;0.63;0.63;;;10.20;67.70;;;9.43;54.11;94589.78;5037751;28;20199;-39
2023/01/13 07:06:07;;;;;;;0.70;0.70;;;10.10;67.70;;;9.46;53.94;94589.41;5036591;28;20219;-39
2023/01/13 07:08:34;;;;;;;0.70;0.70;;;10.20;67.80;;;9.50;54.11;94587.22;5037565;28;20274;-34
2023/01/13 07:11:01;;;;;;;0.75;0.75;;;10.20;67.90;;;9.54;54.05;94586.63;5036897;28;20192;-34
2023/01/13 07:16:14;;;;;;;0.70;0.70;;;10.30;67.80;;;9.59;54.16;94579.03;5037667;28;20203;-34
2023/01/13 07:18:41;;;;;;;0.80;0.80;;;10.30;67.90;;;9.63;54.16;94579.44;5020252;28;20283;-34
2023/01/13 07:21:12;;;;;;;0.80;0.80;;;10.30;67.90;;;9.65;53.99;94566.94;5037415;28;20627;-34
2023/01/13 07:23:40;;;;;;;0.70;0.70;;;10.30;67.80;;;9.69;54.26;94576.06;5037728;28;20195;-34
2023/01/13 07:26:09;;;;;;;0.70;0.70;;;10.40;67.90;;;9.71;54.43;94568.00;5052852;28;20210;-34
2023/01/13 07:28:37;;;;;;;0.70;0.70;;;10.40;67.90;;;9.73;54.05;94576.47;5036422;28;20235;-34
2023/01/13 07:31:11;;;;;;;0.70;0.70;;;10.40;67.80;;;9.76;54.09;94570.81;5037231;28;20199;-34
2023/01/13 07:33:38;;;;;;;0.70;0.70;;;10.40;67.90;;;9.80;54.03;94581.72;5036445;28;20184;-34
2023/01/13 07:36:05;;;;;;;0.80;0.80;;;10.50;67.90;;;9.85;54.17;94582.75;5037173;28;20254;-34
2023/01/13 07:38:33;;;;;;;0.70;0.70;;;10.50;68.00;;;9.89;54.23;94591.84;5037058;28;20275;-34
2023/01/13 07:43:46;;;;;;;0.80;0.80;;;10.60;68.00;;;9.96;54.11;94585.81;5037012;28;20228;-34
2023/01/13 07:46:14;;;;;;;0.80;0.80;;;10.60;68.00;;;9.99;54.07;94585.44;5036806;28;20200;-34
2023/01/13 07:48:41;;;;;;;0.70;0.70;;;10.60;68.00;;;10.00;53.80;94585.22;5036925;28;20247;-34
2023/01/13 07:51:10;;;;;;;0.70;0.70;;;10.70;67.80;;;10.05;54.09;94587.28;5036901;28;20185;-34
2023/01/13 07:53:37;;;;;;;0.80;0.80;;;10.70;68.00;;;10.08;54.25;94586.88;5036967;28;20516;-34
2023/01/13 07:56:06;;;;;;;0.70;0.70;;;10.70;68.10;;;10.11;54.08;94586.47;5036828;28;20223;-34
2023/01/13 07:58:35;;;;;;;0.70;0.70;;;10.80;68.00;;;10.13;54.20;94597.59;5036689;28;20220;-34
2023/01/13 08:01:11;;;;;;;0.70;0.70;;;10.80;68.00;;;10.16;53.95;94586.69;5037638;28;20193;-35
2023/01/13 08:03:39;;;;;;;0.70;0.70;;;10.80;67.90;;;10.20;54.00;94593.16;5036764;28;20184;-34
2023/01/13 08:06:07;;;;;;;0.80;0.80;;;10.80;68.10;;;10.22;54.39;94587.72;5036600;28;20200;-34
2023/01/13 08:08:34;;;;;;;0.70;0.70;;;10.80;68.10;;;10.27;54.38;94595.81;5035551;28;20216;-34
2023/01/13 08:11:04;;;;;;;0.80;0.80;;;10.90;68.30;;;10.30;54.32;94595.41;5036497;28;20200;-34
2023/01/13 08:13:32;;;;;;;0.70;0.70;;;10.90;68.30;;;10.32;54.20;94587.34;5036770;28;20569;-34
2023/01/13 08:16:09;;;;;;;0.70;0.70;;;10.90;68.30;;;10.33;54.43;94581.91;5036399;28;20200;-34
2023/01/13 08:18:37;;;;;;;0.70;0.70;;;11.00;68.50;;;10.37;54.36;94577.09;5036251;28;20663;-34
2023/01/13 08:21:13;;;;;;;0.70;0.70;;;10.90;68.50;;;10.39;54.54;94575.88;5036352;28;20227;-34
2023/01/13 08:23:42;;;;;;;0.68;0.68;;;11.00;68.60;;;10.46;54.61;94582.97;5035319;28;20276;-34
2023/01/13 08:26:13;;;;;;;0.70;0.70;;;11.00;68.60;;;10.47;54.36;94569.66;5036390;28;20199;-34
2023/01/13 08:28:40;;;;;;;0.73;0.73;;;11.00;68.60;;;10.52;54.28;94577.75;5036009;28;20211;-34
2023/01/13 08:31:12;;;;;;;0.60;0.60;;;11.00;68.60;;;10.57;54.47;94574.53;5036084;28;20639;-34
2023/01/13 08:33:39;;;;;;;0.80;0.80;;;11.00;68.70;;;10.62;54.37;94581.78;5036086;28;20181;-34
2023/01/13 08:36:11;;;;;;;0.60;0.60;;;11.10;68.70;;;10.67;54.38;94572.31;5018705;28;20207;-34
2023/01/13 08:38:39;;;;;;;0.70;0.70;;;11.10;68.70;;;10.75;54.22;94578.38;5035905;28;20180;-34
2023/01/13 08:41:53;;;;;;;0.70;0.70;;;11.20;68.70;;;10.83;54.51;94583.41;5036180;28;20208;-34
2023/01/13 08:44:02;;;;;;;0.70;0.70;;;11.30;68.80;;;10.88;53.93;94588.88;5035781;28;20240;-32
2023/01/13 08:46:29;;;;;;;0.70;0.70;;;11.30;68.50;;;10.94;54.06;94589.88;5035950;28;20202;-32
2023/01/13 08:48:56;;;;;;;0.68;0.68;;;11.40;68.50;;;10.97;53.79;94610.47;5035596;28;20212;-32
2023/01/13 08:51:23;;;;;;;0.70;0.70;;;11.40;68.40;;;11.00;53.67;94594.31;5035742;28;20636;-32
2023/01/13 08:53:50;;;;;;;0.70;0.70;;;11.50;68.30;;;11.08;53.42;94596.72;5035758;28;20207;-32
2023/01/13 08:56:17;;;;;;;0.80;0.80;;;11.60;68.20;;;11.13;53.26;94591.69;5035813;28;20243;-33
2023/01/13 08:58:44;;;;;;;0.70;0.70;;;11.60;68.00;;;11.15;52.95;94594.91;5035554;28;20192;-34
2023/01/13 09:01:17;;;;;;;0.70;0.70;;;11.70;68.90;;;11.22;53.01;94600.16;5036084;28;20650;-34
2023/01/13 09:03:44;;;;;;;0.70;0.70;;;11.70;67.70;;;11.26;52.55;94601.38;5035566;28;20272;-34
2023/01/13 09:06:11;;;;;;;0.70;0.70;;;11.80;67.70;;;11.33;52.74;94601.38;5035517;28;20253;-34
2023/01/13 09:08:38;;;;;;;0.70;0.70;;;11.80;67.80;;;11.35;51.98;94605.41;5035189;28;20222;-34
2023/01/13 09:13:10;;;;;;;0.70;0.70;;;11.90;67.50;;;11.39;51.49;94600.56;5035402;28;20196;-42
2023/01/13 09:13:52;;;;;;;0.70;0.70;;;11.80;67.00;;;11.42;51.97;94607.22;5035738;28;20191;-42
2023/01/13 09:16:19;;;;;;;0.80;0.80;;;11.80;67.20;;;11.47;51.61;94602.94;5035281;28;20192;-41
2023/01/13 09:18:46;;;;;;;0.70;0.70;;;11.80;67.00;;;11.50;52.19;94610.41;5035006;28;20195;-41
2023/01/13 09:21:18;;;;;;;0.70;0.70;;;11.80;67.50;;;11.58;51.56;94603.34;5034364;28;20208;-42
2023/01/13 09:23:45;;;;;;;0.70;0.70;;;11.90;67.10;;;11.59;51.70;94605.75;5034639;28;20515;-41
2023/01/13 09:26:19;;;;;;;0.70;0.70;;;11.90;67.50;;;11.61;51.41;94603.75;5035164;28;20223;-41
2023/01/13 09:28:46;;;;;;;0.70;0.70;;;11.90;67.00;;;11.63;51.23;94582.50;5034957;28;20195;-41
2023/01/13 09:31:13;;;;;;;0.60;0.60;;;11.90;67.00;;;11.64;51.48;94592.81;5034356;28;20204;-42
2023/01/13 09:36:25;;;;;;;0.80;0.80;;;11.90;67.40;;;11.66;51.32;94609.19;5035665;28;20184;-41
2023/01/13 09:38:52;;;;;;;0.70;0.70;;;12.00;67.20;;;11.68;51.85;94594.03;5034856;28;20219;-42
2023/01/13 09:44:43;;;;;;;0.70;0.70;;;12.00;67.30;;;11.66;51.90;94592.63;5034414;28;20195;-41
2023/01/13 09:47:34;;;;;;;0.70;0.70;;;12.00;67.30;;;11.68;51.97;94577.44;5032536;28;20238;-42
2023/01/13 09:50:13;;;;;;;0.70;0.70;;;11.90;67.50;;;11.62;52.60;94570.38;5034346;28;20251;-41
2023/01/13 09:52:42;;;;;;;0.70;0.70;;;11.90;68.00;;;11.60;52.76;94575.06;5034889;28;20626;-41
2023/01/13 09:55:30;;;;;;;0.70;0.70;;;11.90;68.00;;;11.56;53.10;94584.34;5035061;28;20204;-41
2023/01/13 09:57:57;;;;;;;0.70;0.70;;;11.70;68.20;;;11.45;53.06;94570.84;5034742;28;20191;-41
2023/01/13 10:00:50;;;;;;;0.70;0.70;;;11.70;68.30;;;11.40;52.86;94556.72;5034754;28;20192;-41
2023/01/13 10:03:27;;;;;;;0.60;0.60;;;11.70;68.10;;;11.39;52.86;94555.91;5032481;28;20208;-41
2023/01/13 10:06:09;;;;;;;0.70;0.70;;;11.60;68.20;;;11.44;52.90;94544.81;5034513;28;20413;-41
2023/01/13 10:08:42;;;;;;;0.68;0.68;;;11.70;67.80;;;11.47;52.52;94552.25;5034580;28;20206;-41
2023/01/13 10:14:24;;;;;;;0.70;0.70;;;11.70;67.70;;;11.50;52.63;94529.00;5034588;28;20519;-40
2023/01/13 10:17:10;;;;;;;0.60;0.60;;;11.80;68.10;;;11.51;52.90;94530.63;5033817;28;20180;-37
2023/01/13 10:19:44;;;;;;;0.70;0.70;;;11.80;68.00;;;11.55;52.42;94544.16;5033807;28;20172;-40
2023/01/13 10:22:23;;;;;;;0.70;0.70;;;11.80;67.70;;;11.59;52.77;94531.41;5034013;28;20517;-39
2023/01/13 10:25:17;;;;;;;0.60;0.60;;;11.90;68.10;;;11.64;52.42;94531.59;5033761;28;20600;-38
2023/01/13 10:27:49;;;;;;;0.50;0.50;;;11.90;67.60;;;11.71;52.22;94537.63;5034507;28;20192;-39
2023/01/13 10:30:38;;;;;;;0.70;0.70;;;11.90;67.80;;;11.77;51.78;94534.16;5034671;28;20255;-40
2023/01/13 10:33:23;;;;;;;0.70;0.70;;;11.90;67.60;;;11.82;51.94;94528.28;5034812;28;20192;-40
2023/01/13 10:36:13;;;;;;;0.60;0.60;;;11.80;67.70;;;11.91;52.29;94536.75;5034483;28;20263;-40
2023/01/13 10:38:46;;;;;;;0.65;0.65;;;12.00;68.20;;;12.03;51.90;94518.53;5034539;28;20176;-40
2023/01/13 10:41:25;;;;;;;0.70;0.70;;;12.00;68.10;;;12.17;51.92;94514.81;5034541;28;20574;-40
2023/01/13 10:43:59;;;;;;;0.70;0.70;;;12.20;68.10;;;12.36;51.48;94525.41;5033454;28;20679;-40
2023/01/13 10:46:28;;;;;;;0.70;0.70;;;12.30;67.80;;;12.47;50.60;94515.03;5036174;28;20207;-39
2023/01/13 10:48:59;;;;;;;0.70;0.70;;;12.40;67.50;;;12.61;50.92;94517.56;5037140;28;20220;-40
2023/01/13 10:51:42;;;;;;;0.70;0.70;;;12.60;67.50;;;12.75;50.17;94516.41;5038196;28;20192;-40
2023/01/13 10:54:12;;;;;;;0.70;0.70;;;12.60;68.00;;;12.88;50.44;94517.34;5037413;28;20191;-40
2023/01/13 10:56:42;;;;;;;0.80;0.80;;;12.80;67.40;;;13.07;50.03;94521.63;5038260;28;20180;-38
2023/01/13 10:59:28;;;;;;;0.65;0.65;;;13.00;67.20;;;13.21;49.67;94516.22;5036911;28;20185;-39
2023/01/13 11:02:17;;;;;;;0.60;0.60;;;13.10;66.80;;;13.38;49.60;94521.75;5038073;28;20202;-40
2023/01/13 11:04:52;;;;;;;0.70;0.70;;;13.20;66.50;;;13.43;48.92;94506.91;5038064;28;20199;-39
2023/01/13 11:07:38;;;;;;;0.60;0.60;;;13.30;66.40;;;13.57;49.01;94507.56;5037729;28;20196;-40
2023/01/13 11:10:08;;;;;;;0.75;0.75;;;13.50;65.90;;;13.60;48.00;94506.31;5037634;28;20200;-40
2023/01/13 11:13:08;;;;;;;0.70;0.70;;;13.50;65.60;;;13.65;49.07;94488.00;5038116;28;20211;-39
2023/01/13 11:16:14;;;;;;;0.70;0.70;;;13.70;66.10;;;13.72;48.04;94494.00;5037776;28;20208;-40
2023/01/13 11:19:12;;;;;;;0.70;0.70;;;13.80;65.20;;;13.78;48.67;94481.78;5036718;28;20215;-40
2023/01/13 11:22:00;;;;;;;0.70;0.70;;;13.90;65.40;;;13.84;47.88;94487.97;5034989;28;20637;-40
2023/01/13 11:24:57;;;;;;;0.60;0.60;;;13.90;65.10;;;13.93;48.26;94490.09;5036585;28;20186;-41
2023/01/13 11:27:41;;;;;;;0.70;0.70;;;14.00;64.90;;;14.02;48.39;94501.13;5037681;28;20287;-39